Fairlee, Vermont
Current Conditions -  °F | °C
As of 5:53 AM on Saturday 22 Nov 2014 (Local Time) from KLEB Reporting Station
Broken Clouds Broken Clouds  
Wind Chill: 15°   Ceiling: 9000
Heat Index: 15°   Visibility: 10mi
Dew Point: 11°   Wind: 0mph
Humidity: 84%   Direction: NA
Pressure: 30.31"   Gusts: NA
Location:  43.91°N, 72.14°W
Report Text: KLEB 221053Z 00000KT 10SM BKN090 M09/M12 A3031 RMK AO2 SLP279 T10941117
Loading
Personal Weather Stations






























Interactive Weather Map New forecast layout! Learn more

10-Day Weather Forecast

Advertisements
Track Severe Weather on mobile